createdAt,value
2022-12-14T00:02:11.672Z,96844.81
2022-12-14T00:04:41.009Z,96848.97
2022-12-14T00:07:10.073Z,96840.34
2022-12-14T00:09:39.712Z,96829.19
2022-12-14T00:12:11.808Z,96827.28
2022-12-14T00:14:41.126Z,96835.13
2022-12-14T00:17:10.921Z,96830.00
2022-12-14T00:19:41.145Z,96828.25
2022-12-14T00:22:11.275Z,96820.56
2022-12-14T00:24:40.436Z,96822.16
2022-12-14T00:27:10.712Z,96810.06
2022-12-14T00:29:40.358Z,96806.53
2022-12-14T00:32:09.951Z,96805.75
2022-12-14T00:34:39.990Z,96802.50
2022-12-14T00:37:09.073Z,96798.84
2022-12-14T00:39:38.511Z,96790.09
2022-12-14T00:42:09.760Z,96791.16
2022-12-14T00:44:40.343Z,96795.50
2022-12-14T00:47:10.016Z,96801.16
2022-12-14T00:49:40.009Z,96786.63
2022-12-14T00:52:09.474Z,96788.22
2022-12-14T00:54:40.032Z,96778.81
2022-12-14T00:57:11.033Z,96778.94
2022-12-14T00:59:41.264Z,96778.66
2022-12-14T01:02:11.840Z,96790.50
2022-12-14T01:04:41.530Z,96789.56
2022-12-14T01:07:11.586Z,96791.44
2022-12-14T01:09:41.155Z,96789.84
2022-12-14T01:12:11.546Z,96784.75
2022-12-14T01:14:41.176Z,96773.69
2022-12-14T01:17:11.678Z,96774.22
2022-12-14T01:19:42.000Z,96773.25
2022-12-14T01:22:11.947Z,96776.91
2022-12-14T01:24:41.620Z,96780.94
2022-12-14T01:27:11.451Z,96775.81
2022-12-14T01:29:41.560Z,96772.31
2022-12-14T01:32:11.155Z,96764.78
2022-12-14T01:34:41.175Z,96763.97
2022-12-14T01:37:09.679Z,96767.19
2022-12-14T01:39:38.539Z,96767.19
2022-12-14T01:42:15.187Z,96755.09
2022-12-14T01:44:59.618Z,96765.03
2022-12-14T01:47:38.999Z,96755.72
2022-12-14T01:50:17.820Z,96754.13
2022-12-14T01:52:50.801Z,96763.53
2022-12-14T01:55:27.086Z,96764.06
2022-12-14T01:58:04.320Z,96780.25
2022-12-14T02:00:33.819Z,96776.09
2022-12-14T02:03:11.561Z,96762.47
2022-12-14T02:05:49.994Z,96759.91
2022-12-14T02:08:23.203Z,96751.28
2022-12-14T02:10:55.680Z,96750.34
2022-12-14T02:13:31.277Z,96745.38
2022-12-14T02:16:00.794Z,96747.94
2022-12-14T02:18:32.601Z,96752.75
2022-12-14T02:21:22.981Z,96739.97
2022-12-14T02:24:35.520Z,96744.00
2022-12-14T02:27:42.570Z,96748.69
2022-12-14T02:30:17.964Z,96735.59
2022-12-14T02:33:27.488Z,96726.72
2022-12-14T02:36:04.678Z,96721.22
2022-12-14T02:38:51.343Z,96726.72
2022-12-14T02:41:38.493Z,96731.31
2022-12-14T02:44:25.910Z,96724.03
2022-12-14T02:47:08.170Z,96718.09
2022-12-14T02:49:58.465Z,96709.47
2022-12-14T02:52:42.971Z,96702.16
2022-12-14T02:55:22.824Z,96701.22
2022-12-14T02:58:01.581Z,96709.19
2022-12-14T03:00:34.884Z,96710.81
2022-12-14T03:03:07.615Z,96700.28
2022-12-14T03:05:37.308Z,96698.78
2022-12-14T03:08:11.942Z,96696.75
2022-12-14T03:10:49.383Z,96704.19
2022-12-14T03:13:29.792Z,96694.59
2022-12-14T03:16:04.495Z,96689.47
2022-12-14T03:18:42.277Z,96686.25
2022-12-14T03:21:20.463Z,96691.09
2022-12-14T03:23:52.807Z,96682.44
2022-12-14T03:26:30.360Z,96672.88
2022-12-14T03:29:09.594Z,96678.94
2022-12-14T03:31:48.937Z,96672.19
2022-12-14T03:34:27.352Z,96671.25
2022-12-14T03:37:05.766Z,96672.88
2022-12-14T03:39:37.511Z,96668.56
2022-12-14T03:42:18.364Z,96682.19
2022-12-14T03:44:57.401Z,96681.38
2022-12-14T03:47:54.723Z,96684.56
2022-12-14T03:50:33.604Z,96677.53
2022-12-14T03:53:10.656Z,96687.78
2022-12-14T03:55:53.340Z,96693.72
2022-12-14T03:58:37.877Z,96696.28
2022-12-14T04:01:15.640Z,96684.28
2022-12-14T04:03:58.285Z,96671.63
2022-12-14T04:06:42.624Z,96679.44
2022-12-14T04:09:30.535Z,96685.38
2022-12-14T04:12:26.581Z,96678.34
2022-12-14T04:15:19.979Z,96684.28
2022-12-14T04:18:11.458Z,96673.63
2022-12-14T04:20:49.164Z,96665.78
2022-12-14T04:23:40.699Z,96651.22
2022-12-14T04:26:16.718Z,96638.84
2022-12-14T04:29:19.785Z,96634.53
2022-12-14T04:31:55.461Z,96634.38
2022-12-14T04:34:30.620Z,96635.03
2022-12-14T04:37:03.807Z,96632.34
2022-12-14T04:39:46.678Z,96629.78
2022-12-14T04:42:20.342Z,96637.34
2022-12-14T04:44:56.526Z,96639.38
2022-12-14T04:47:46.326Z,96629.47
2022-12-14T04:50:25.212Z,96623.41
2022-12-14T04:53:02.617Z,96626.13
2022-12-14T04:55:45.173Z,96631.69
2022-12-14T04:58:25.439Z,96634.09
2022-12-14T05:01:24.927Z,96643.53
2022-12-14T05:04:12.558Z,96634.78
2022-12-14T05:06:54.310Z,96629.25
2022-12-14T05:09:31.277Z,96637.34
2022-12-14T05:12:09.216Z,96619.53
2022-12-14T05:14:45.711Z,96614.78
2022-12-14T05:17:16.098Z,96605.19
2022-12-14T05:19:48.760Z,96598.16
2022-12-14T05:22:19.377Z,96605.84
2022-12-14T05:24:48.769Z,96599.78
2022-12-14T05:27:20.641Z,96599.78
2022-12-14T05:29:49.765Z,96596.56
2022-12-14T05:32:20.602Z,96587.13
2022-12-14T05:34:50.037Z,96576.06
2022-12-14T05:37:20.547Z,96571.75
2022-12-14T05:39:50.366Z,96563.91
2022-12-14T05:42:21.686Z,96551.25
2022-12-14T05:44:51.215Z,96549.66
2022-12-14T05:47:20.812Z,96546.91
2022-12-14T05:49:49.812Z,96533.97
2022-12-14T05:52:19.955Z,96536.66
2022-12-14T05:54:49.555Z,96534.41
2022-12-14T05:57:20.447Z,96526.22
2022-12-14T05:59:49.490Z,96524.31
2022-12-14T06:02:18.515Z,96525.13
2022-12-14T06:04:47.819Z,96520.66
2022-12-14T06:07:19.049Z,96520.53
2022-12-14T06:09:51.292Z,96519.72
2022-12-14T06:12:22.356Z,96522.91
2022-12-14T06:14:51.421Z,96521.28
2022-12-14T06:17:21.753Z,96521.16
2022-12-14T06:19:52.073Z,96523.22
2022-12-14T06:22:22.198Z,96515.53
2022-12-14T06:24:51.716Z,96512.16
2022-12-14T06:27:22.088Z,96500.59
2022-12-14T06:29:52.168Z,96507.22
2022-12-14T06:32:21.329Z,96499.53
2022-12-14T06:34:51.626Z,96492.47
2022-12-14T06:37:21.580Z,96489.91
2022-12-14T06:39:54.454Z,96503.03
2022-12-14T06:42:25.140Z,96498.84
2022-12-14T06:44:54.105Z,96489.28
2022-12-14T06:47:24.238Z,96493.72
2022-12-14T06:49:53.795Z,96488.59
2022-12-14T06:52:26.660Z,96488.59
2022-12-14T06:54:56.381Z,96491.03
2022-12-14T06:57:27.263Z,96489.91
2022-12-14T06:59:55.679Z,96497.47
2022-12-14T07:02:25.414Z,96507.03
2022-12-14T07:04:56.020Z,96513.41
2022-12-14T07:07:26.720Z,96516.72
2022-12-14T07:09:56.395Z,96526.91
2022-12-14T07:12:28.031Z,96520.84
2022-12-14T07:14:56.979Z,96524.69
2022-12-14T07:17:26.552Z,96527.94
2022-12-14T07:19:56.009Z,96525.50
2022-12-14T07:22:25.525Z,96522.81
2022-12-14T07:24:53.992Z,96526.69
2022-12-14T07:27:24.058Z,96518.69
2022-12-14T07:29:55.096Z,96520.00
2022-12-14T07:32:25.037Z,96511.34
2022-12-14T07:34:54.063Z,96508.66
2022-12-14T07:37:24.313Z,96517.16
2022-12-14T07:39:54.882Z,96512.84
2022-12-14T07:42:23.814Z,96506.91
2022-12-14T07:44:54.223Z,96505.28
2022-12-14T07:47:24.656Z,96509.47
2022-12-14T07:49:53.589Z,96506.91
2022-12-14T07:52:23.303Z,96504.19
2022-12-14T07:54:53.445Z,96488.66
2022-12-14T07:57:23.642Z,96479.22
2022-12-14T07:59:57.556Z,96473.94
2022-12-14T08:02:29.604Z,96494.44
2022-12-14T08:04:59.260Z,96499.41
2022-12-14T08:07:32.140Z,96502.13
2022-12-14T08:10:01.937Z,96498.91
2022-12-14T08:12:31.581Z,96494.75
2022-12-14T08:15:03.977Z,96505.41
2022-12-14T08:17:34.047Z,96497.59
2022-12-14T08:20:04.381Z,96504.03
2022-12-14T08:22:33.980Z,96509.81
2022-12-14T08:25:03.513Z,96514.78
2022-12-14T08:27:33.265Z,96513.69
2022-12-14T08:30:04.563Z,96522.00
2022-12-14T08:32:34.566Z,96515.00
2022-12-14T08:35:04.273Z,96517.88
2022-12-14T08:37:33.923Z,96505.06
2022-12-14T08:40:03.728Z,96510.69
2022-12-14T08:42:33.237Z,96511.50
2022-12-14T08:45:04.041Z,96509.88
2022-12-14T08:47:33.503Z,96503.50
2022-12-14T08:50:03.109Z,96492.44
2022-12-14T08:52:32.588Z,96495.81
2022-12-14T08:55:02.647Z,96491.31
2022-12-14T08:57:32.713Z,96501.44
2022-12-14T09:00:03.712Z,96507.50
2022-12-14T09:02:33.462Z,96498.72
2022-12-14T09:05:03.315Z,96502.88
2022-12-14T09:07:34.367Z,96508.47
2022-12-14T09:10:04.696Z,96512.00
2022-12-14T09:12:36.627Z,96516.31
2022-12-14T09:15:10.946Z,96512.00
2022-12-14T09:17:41.638Z,96530.72
2022-12-14T09:20:12.947Z,96528.44
2022-12-14T09:22:43.066Z,96530.72
2022-12-14T09:25:13.137Z,96529.75
2022-12-14T09:27:42.594Z,96537.13
2022-12-14T09:30:17.042Z,96540.91
2022-12-14T09:32:50.585Z,96544.63
2022-12-14T09:35:20.872Z,96538.41
2022-12-14T09:37:52.186Z,96536.19
2022-12-14T09:40:25.687Z,96533.94
2022-12-14T09:43:06.056Z,96531.06
2022-12-14T09:45:48.941Z,96523.09
2022-12-14T09:48:25.651Z,96520.53
2022-12-14T09:50:56.259Z,96527.91
2022-12-14T09:53:27.907Z,96521.34
2022-12-14T09:55:59.594Z,96511.59
2022-12-14T09:58:33.359Z,96514.28
2022-12-14T10:01:34.131Z,96514.59
2022-12-14T10:04:17.603Z,96520.22
2022-12-14T10:06:56.311Z,96522.78
2022-12-14T10:09:37.606Z,96515.75
2022-12-14T10:12:27.307Z,96514.78
2022-12-14T10:15:19.687Z,96525.72
2022-12-14T10:18:41.271Z,96519.47
2022-12-14T10:21:15.117Z,96533.09
2022-12-14T10:23:54.163Z,96524.47
2022-12-14T10:26:30.488Z,96525.75
2022-12-14T10:29:06.707Z,96520.47
2022-12-14T10:31:42.350Z,96521.13
2022-12-14T10:34:22.369Z,96518.41
2022-12-14T10:37:14.168Z,96520.84
2022-12-14T10:39:54.803Z,96534.44
2022-12-14T10:42:33.263Z,96523.41
2022-12-14T10:48:31.977Z,96520.66
2022-12-14T10:51:09.219Z,96518.09
2022-12-14T10:53:48.534Z,96518.09
2022-12-14T10:56:26.098Z,96514.94
2022-12-14T10:59:38.856Z,96511.59
2022-12-14T11:02:17.416Z,96510.47
2022-12-14T11:04:52.522Z,96512.22
2022-12-14T11:07:26.977Z,96510.78
2022-12-14T11:10:15.137Z,96508.72
2022-12-14T11:13:03.428Z,96510.34
2022-12-14T11:15:37.906Z,96509.22
2022-12-14T11:18:31.409Z,96512.78
2022-12-14T11:21:04.507Z,96505.72
2022-12-14T11:23:41.380Z,96506.53
2022-12-14T11:26:15.404Z,96506.22
2022-12-14T11:28:51.792Z,96506.06
2022-12-14T11:31:29.908Z,96512.78
2022-12-14T11:34:02.080Z,96507.66
2022-12-14T11:36:37.070Z,96501.88
2022-12-14T11:39:22.821Z,96503.19
2022-12-14T11:42:01.577Z,96511.38
2022-12-14T11:44:36.218Z,96503.22
2022-12-14T11:47:13.032Z,96502.75
2022-12-14T11:49:47.487Z,96510.31
2022-12-14T11:52:19.945Z,96505.81
2022-12-14T11:55:12.672Z,96497.50
2022-12-14T11:57:52.814Z,96497.34
2022-12-14T12:00:30.696Z,96500.41
2022-12-14T12:03:06.726Z,96496.06
2022-12-14T12:05:42.887Z,96500.91
2022-12-14T12:08:24.918Z,96495.31
2022-12-14T12:11:02.362Z,96486.81
2022-12-14T12:13:36.349Z,96496.88
2022-12-14T12:16:15.349Z,96492.41
2022-12-14T12:18:51.649Z,96498.03
2022-12-14T12:21:26.388Z,96493.69
2022-12-14T12:24:04.900Z,96492.09
2022-12-14T12:26:41.393Z,96494.38
2022-12-14T12:29:25.703Z,96494.38
2022-12-14T12:32:01.361Z,96497.91
2022-12-14T12:34:39.284Z,96500.78
2022-12-14T12:37:26.275Z,96500.00
2022-12-14T12:40:06.427Z,96504.34
2022-12-14T12:42:47.631Z,96506.59
2022-12-14T12:45:26.398Z,96513.34
2022-12-14T12:48:03.890Z,96512.22
2022-12-14T12:50:41.125Z,96514.47
2022-12-14T12:53:18.144Z,96515.91
2022-12-14T12:55:53.811Z,96519.41
2022-12-14T12:58:30.002Z,96525.03
2022-12-14T13:01:07.934Z,96523.59
2022-12-14T13:03:45.685Z,96527.13
2022-12-14T13:06:23.432Z,96524.25
2022-12-14T13:08:59.781Z,96525.69
2022-12-14T13:11:34.844Z,96520.41
2022-12-14T13:14:26.264Z,96517.97
2022-12-14T13:16:58.958Z,96515.25
2022-12-14T13:19:55.768Z,96520.22
2022-12-14T13:22:29.839Z,96525.34
2022-12-14T13:25:09.399Z,96524.56
2022-12-14T13:28:22.398Z,96522.66
2022-12-14T13:31:26.574Z,96516.38
2022-12-14T13:34:24.005Z,96527.78
2022-12-14T13:37:34.571Z,96527.78
2022-12-14T13:40:41.856Z,96529.53
2022-12-14T13:43:32.968Z,96526.81
2022-12-14T13:46:18.917Z,96536.28
2022-12-14T13:48:54.510Z,96533.56
2022-12-14T13:51:31.443Z,96543.81
2022-12-14T13:54:04.784Z,96547.38
2022-12-14T13:56:38.439Z,96544.63
2022-12-14T13:59:26.236Z,96549.44
2022-12-14T14:02:03.152Z,96545.13
2022-12-14T14:04:34.264Z,96555.41
2022-12-14T14:07:50.742Z,96557.31
2022-12-14T14:10:35.013Z,96556.34
2022-12-14T14:13:58.071Z,96553.78
2022-12-14T14:16:36.494Z,96555.72
2022-12-14T14:19:24.204Z,96554.44
2022-12-14T14:22:24.106Z,96553.78
2022-12-14T14:25:09.301Z,96551.22
2022-12-14T14:27:43.011Z,96558.63
2022-12-14T14:30:30.690Z,96558.31
2022-12-14T14:33:43.289Z,96554.75
2022-12-14T14:35:54.347Z,96553.81
2022-12-14T14:38:30.013Z,96558.31
2022-12-14T14:41:18.307Z,96571.47
2022-12-14T14:43:54.363Z,96579.00
2022-12-14T14:46:38.232Z,96586.88
2022-12-14T14:49:22.948Z,96589.28
2022-12-14T14:51:54.656Z,96582.53
2022-12-14T14:55:16.212Z,96584.31
2022-12-14T14:57:37.037Z,96586.22
2022-12-14T15:00:13.773Z,96581.41
2022-12-14T15:02:45.821Z,96584.59
2022-12-14T15:05:41.913Z,96597.28
2022-12-14T15:08:21.427Z,96610.63
2022-12-14T15:10:52.488Z,96616.09
2022-12-14T15:13:26.909Z,96618.47
2022-12-14T15:15:57.486Z,96616.72
2022-12-14T15:18:30.430Z,96617.03
2022-12-14T15:21:05.631Z,96619.47
2022-12-14T15:23:41.066Z,96618.66
2022-12-14T15:26:17.378Z,96628.91
2022-12-14T15:28:53.393Z,96634.88
2022-12-14T15:31:32.240Z,96638.06
2022-12-14T15:34:03.876Z,96639.69
2022-12-14T15:36:40.272Z,96651.09
2022-12-14T15:39:32.718Z,96657.81
2022-12-14T15:42:15.199Z,96659.75
2022-12-14T15:44:53.187Z,96652.94
2022-12-14T15:47:29.827Z,96661.28
2022-12-14T15:50:25.628Z,96666.56
2022-12-14T15:53:00.199Z,96672.47
2022-12-14T15:55:35.973Z,96670.84
2022-12-14T15:58:11.839Z,96687.22
2022-12-14T16:00:48.607Z,96683.19
2022-12-14T16:03:32.021Z,96691.19
2022-12-14T16:06:03.379Z,96697.44
2022-12-14T16:08:38.101Z,96682.06
2022-12-14T16:11:27.172Z,96692.63
2022-12-14T16:13:59.890Z,96703.53
2022-12-14T16:16:29.687Z,96701.91
2022-12-14T16:19:20.155Z,96696.47
2022-12-14T16:22:06.277Z,96705.28
2022-12-14T16:24:35.119Z,96699.66
2022-12-14T16:27:18.836Z,96701.28
2022-12-14T16:30:22.326Z,96706.25
2022-12-14T16:32:54.828Z,96714.25
2022-12-14T16:35:27.242Z,96721.94
2022-12-14T16:38:05.778Z,96728.19
2022-12-14T16:40:38.059Z,96729.81
2022-12-14T16:43:30.065Z,96727.75
2022-12-14T16:46:27.641Z,96729.94
2022-12-14T16:49:33.604Z,96735.25
2022-12-14T16:52:08.017Z,96732.69
2022-12-14T16:54:39.291Z,96735.59
2022-12-14T16:57:19.678Z,96731.78
2022-12-14T17:00:00.263Z,96720.38
2022-12-14T17:02:35.311Z,96730.97
2022-12-14T17:05:13.049Z,96725.69
2022-12-14T17:07:42.587Z,96732.41
2022-12-14T17:10:17.955Z,96726.63
2022-12-14T17:12:48.170Z,96727.28
2022-12-14T17:15:23.701Z,96730.81
2022-12-14T17:17:56.613Z,96734.97
2022-12-14T17:20:30.262Z,96734.84
2022-12-14T17:23:03.097Z,96734.69
2022-12-14T17:25:34.931Z,96747.53
2022-12-14T17:28:05.073Z,96742.34
2022-12-14T17:30:35.538Z,96747.09
2022-12-14T17:33:05.840Z,96744.41
2022-12-14T17:35:35.966Z,96742.94
2022-12-14T17:38:07.615Z,96749.66
2022-12-14T17:40:38.220Z,96745.50
2022-12-14T17:43:12.140Z,96737.94
2022-12-14T17:45:43.148Z,96742.28
2022-12-14T17:48:14.212Z,96746.31
2022-12-14T17:50:48.844Z,96747.78
2022-12-14T17:53:21.656Z,96751.16
2022-12-14T17:55:51.431Z,96748.59
2022-12-14T17:58:21.008Z,96756.13
2022-12-14T18:01:03.955Z,96757.09
2022-12-14T18:03:37.149Z,96752.75
2022-12-14T18:06:06.673Z,96763.00
2022-12-14T18:08:35.737Z,96762.88
2022-12-14T18:11:13.668Z,96768.81
2022-12-14T18:13:44.638Z,96774.41
2022-12-14T18:16:20.249Z,96778.38
2022-12-14T18:18:50.445Z,96784.06
2022-12-14T18:21:22.485Z,96784.25
2022-12-14T18:23:51.471Z,96782.31
2022-12-14T18:26:21.791Z,96775.44
2022-12-14T18:28:52.191Z,96774.63
2022-12-14T18:31:27.863Z,96780.34
2022-12-14T18:33:56.946Z,96795.31
2022-12-14T18:36:27.648Z,96793.06
2022-12-14T18:38:56.636Z,96804.56
2022-12-14T18:41:29.647Z,96797.00
2022-12-14T18:44:00.678Z,96806.75
2022-12-14T18:46:31.949Z,96809.25
2022-12-14T18:49:01.245Z,96815.63
2022-12-14T18:51:29.870Z,96814.94
2022-12-14T18:54:02.441Z,96823.59
2022-12-14T18:56:32.587Z,96831.72
2022-12-14T18:59:02.435Z,96838.06
2022-12-14T19:01:34.799Z,96845.25
2022-12-14T19:04:04.219Z,96837.72
2022-12-14T19:06:44.093Z,96839.47
2022-12-14T19:09:14.801Z,96849.72
2022-12-14T19:11:45.648Z,96855.78
2022-12-14T19:14:14.405Z,96851.75
2022-12-14T19:16:45.366Z,96856.06
2022-12-14T19:19:14.939Z,96866.63
2022-12-14T19:21:45.019Z,96872.56
2022-12-14T19:24:15.052Z,96871.06
2022-12-14T19:26:44.409Z,96854.47
2022-12-14T19:29:19.553Z,96864.28
2022-12-14T19:31:53.871Z,96866.56
2022-12-14T19:34:23.081Z,96863.47
2022-12-14T19:36:51.965Z,96871.81
2022-12-14T19:39:21.584Z,96866.56
2022-12-14T19:41:50.626Z,96869.00
2022-12-14T19:44:20.691Z,96867.59
2022-12-14T19:46:51.151Z,96871.63
2022-12-14T19:49:22.364Z,96872.59
2022-12-14T19:51:52.062Z,96875.94
2022-12-14T19:54:21.477Z,96871.63
2022-12-14T19:56:52.122Z,96860.72
2022-12-14T19:59:21.218Z,96863.94
2022-12-14T20:01:51.378Z,96869.75
2022-12-14T20:04:19.999Z,96871.34
2022-12-14T20:06:48.506Z,96869.47
2022-12-14T20:09:19.578Z,96875.53
2022-12-14T20:11:48.989Z,96870.13
2022-12-14T20:14:18.758Z,96855.41
2022-12-14T20:16:48.491Z,96850.00
2022-12-14T20:19:20.316Z,96847.13
2022-12-14T20:21:49.088Z,96861.56
2022-12-14T20:24:18.946Z,96866.72
2022-12-14T20:26:47.492Z,96871.53
2022-12-14T20:29:18.662Z,96873.94
2022-12-14T20:31:48.190Z,96870.56
2022-12-14T20:34:18.765Z,96877.31
2022-12-14T20:36:48.511Z,96887.28
2022-12-14T20:39:18.446Z,96889.84
2022-12-14T20:41:47.656Z,96893.09
2022-12-14T20:44:16.824Z,96894.69
2022-12-14T20:46:47.789Z,96896.31
2022-12-14T20:49:20.559Z,96901.31
2022-12-14T20:51:50.326Z,96894.44
2022-12-14T20:54:22.373Z,96896.03
2022-12-14T20:56:52.256Z,96899.28
2022-12-14T20:59:20.892Z,96895.72
2022-12-14T21:01:55.783Z,96893.16
2022-12-14T21:04:26.469Z,96894.13
2022-12-14T21:06:56.013Z,96896.84
2022-12-14T21:09:25.183Z,96897.78
2022-12-14T21:12:13.727Z,96907.63
2022-12-14T21:14:46.630Z,96899.91
2022-12-14T21:17:17.135Z,96892.09
2022-12-14T21:19:47.833Z,96900.56
2022-12-14T21:22:22.443Z,96906.66
2022-12-14T21:25:02.868Z,96898.47
2022-12-14T21:27:34.440Z,96902.25
2022-12-14T21:30:04.734Z,96904.94
2022-12-14T21:32:37.746Z,96897.94
2022-12-14T21:35:13.325Z,96906.56
2022-12-14T21:37:41.901Z,96906.75
2022-12-14T21:40:33.908Z,96905.75
2022-12-14T21:43:01.602Z,96903.06
2022-12-14T21:45:31.390Z,96899.41
2022-12-14T21:48:00.769Z,96899.91
2022-12-14T21:50:31.202Z,96893.84
2022-12-14T21:53:00.823Z,96897.34
2022-12-14T21:55:29.954Z,96901.31
2022-12-14T21:58:17.004Z,96901.44
2022-12-14T22:00:46.386Z,96906.44
2022-12-14T22:03:16.056Z,96906.81
2022-12-14T22:05:47.869Z,96908.25
2022-12-14T22:08:18.128Z,96912.63
2022-12-14T22:10:48.305Z,96914.38
2022-12-14T22:13:17.712Z,96922.72
2022-12-14T22:15:47.913Z,96921.25
2022-12-14T22:18:19.433Z,96926.50
2022-12-14T22:20:50.925Z,96923.00
2022-12-14T22:23:21.304Z,96921.09
2022-12-14T22:25:51.220Z,96921.09
2022-12-14T22:28:20.188Z,96913.13
2022-12-14T22:30:50.827Z,96914.59
2022-12-14T22:33:20.937Z,96925.00
2022-12-14T22:35:53.153Z,96914.72
2022-12-14T22:38:24.531Z,96929.19
2022-12-14T22:40:54.139Z,96920.03
2022-12-14T22:43:28.904Z,96929.47
2022-12-14T22:46:03.007Z,96931.22
2022-12-14T22:48:33.589Z,96930.28
2022-12-14T22:51:09.105Z,96935.94
2022-12-14T22:53:39.243Z,96935.13
2022-12-14T22:56:16.752Z,96939.44
2022-12-14T22:58:51.752Z,96943.75
2022-12-14T23:01:23.225Z,96944.56
2022-12-14T23:03:54.536Z,96944.56
2022-12-14T23:06:25.588Z,96954.53
2022-12-14T23:09:14.527Z,96966.03
2022-12-14T23:12:01.256Z,96979.03
2022-12-14T23:14:47.635Z,96966.03
2022-12-14T23:17:33.899Z,96965.09
2022-12-14T23:20:20.103Z,96961.06
2022-12-14T23:23:08.287Z,96956.06
2022-12-14T23:25:55.422Z,96957.31
2022-12-14T23:28:41.311Z,96966.09
2022-12-14T23:31:28.687Z,96968.84
2022-12-14T23:34:15.378Z,96970.72
2022-12-14T23:37:02.584Z,96961.13
2022-12-14T23:39:50.551Z,96957.59
2022-12-14T23:42:37.437Z,96948.31
2022-12-14T23:45:25.963Z,96948.72
2022-12-14T23:48:15.720Z,96947.09
2022-12-14T23:51:02.346Z,96946.28
2022-12-14T23:53:50.462Z,96953.03
2022-12-14T23:56:39.102Z,96949.53
2022-12-14T23:59:31.633Z,96950.34
